createdAt,value
2023-01-02T00:02:16.474Z,3.63
2023-01-02T00:07:18.222Z,3.42
2023-01-02T00:12:20.032Z,4.22
2023-01-02T00:17:21.923Z,3.40
2023-01-02T00:22:23.788Z,3.33
2023-01-02T00:27:25.549Z,4.32
2023-01-02T00:32:27.317Z,3.60
2023-01-02T00:37:29.132Z,3.10
2023-01-02T00:42:30.861Z,3.80
2023-01-02T00:47:32.578Z,3.05
2023-01-02T00:52:34.278Z,3.30
2023-01-02T00:57:36.152Z,3.10
2023-01-02T01:02:37.887Z,2.92
2023-01-02T01:07:39.827Z,3.20
2023-01-02T01:12:41.583Z,3.30
2023-01-02T01:17:43.593Z,2.92
2023-01-02T01:22:45.341Z,3.67
2023-01-02T01:27:47.158Z,2.90
2023-01-02T01:32:48.850Z,3.30
2023-01-02T01:37:50.558Z,3.30
2023-01-02T01:42:57.437Z,3.50
2023-01-02T01:48:02.461Z,3.08
2023-01-02T01:53:13.386Z,3.22
2023-01-02T01:58:19.921Z,3.83
2023-01-02T02:03:26.461Z,3.15
2023-01-02T02:08:47.773Z,3.15
2023-01-02T02:13:50.559Z,3.30
2023-01-02T02:19:19.339Z,3.20
2023-01-02T02:24:34.158Z,3.20
2023-01-02T02:30:14.951Z,3.30
2023-01-02T02:35:26.419Z,3.28
2023-01-02T02:40:37.461Z,3.53
2023-01-02T02:46:03.420Z,3.63
2023-01-02T02:51:10.654Z,2.78
2023-01-02T02:56:14.510Z,2.63
2023-01-02T03:01:18.916Z,3.58
2023-01-02T03:06:39.027Z,3.25
2023-01-02T03:12:02.683Z,3.10
2023-01-02T03:17:11.378Z,3.05
2023-01-02T03:22:21.785Z,3.90
2023-01-02T03:27:27.924Z,3.22
2023-01-02T03:32:33.665Z,3.10
2023-01-02T03:37:39.183Z,3.20
2023-01-02T03:43:20.118Z,3.35
2023-01-02T03:48:43.321Z,2.65
2023-01-02T03:53:45.652Z,2.83
2023-01-02T03:58:54.890Z,3.00
2023-01-02T04:04:01.781Z,3.10
2023-01-02T04:09:09.490Z,3.13
2023-01-02T04:14:17.811Z,2.80
2023-01-02T04:19:27.556Z,3.40
2023-01-02T04:24:36.041Z,3.50
2023-01-02T04:29:38.134Z,2.90
2023-01-02T04:34:42.300Z,3.10
2023-01-02T04:39:44.036Z,2.58
2023-01-02T04:44:45.718Z,3.05
2023-01-02T04:49:47.376Z,3.05
2023-01-02T04:54:49.128Z,3.50
2023-01-02T04:59:51.005Z,3.65
2023-01-02T05:04:52.701Z,3.33
2023-01-02T05:09:54.446Z,2.78
2023-01-02T05:14:56.226Z,3.33
2023-01-02T05:19:57.966Z,2.97
2023-01-02T05:24:59.660Z,3.72
2023-01-02T05:30:01.432Z,3.55
2023-01-02T05:35:03.674Z,3.00
2023-01-02T05:40:05.707Z,3.47
2023-01-02T05:45:07.956Z,2.88
2023-01-02T05:50:09.903Z,3.30
2023-01-02T05:55:11.573Z,2.97
2023-01-02T06:00:13.745Z,3.22
2023-01-02T06:05:15.631Z,2.78
2023-01-02T06:10:17.364Z,3.03
2023-01-02T06:15:19.072Z,3.40
2023-01-02T06:20:20.809Z,3.95
2023-01-02T06:25:22.537Z,2.83
2023-01-02T06:30:24.298Z,4.32
2023-01-02T06:35:26.296Z,3.13
2023-01-02T06:40:27.964Z,3.22
2023-01-02T06:45:29.654Z,3.40
2023-01-02T06:50:34.833Z,3.33
2023-01-02T06:55:37.018Z,3.60
2023-01-02T07:00:38.759Z,3.85
2023-01-02T07:05:40.644Z,2.90
2023-01-02T07:10:43.174Z,3.35
2023-01-02T07:15:47.281Z,2.75
2023-01-02T07:20:54.219Z,3.47
2023-01-02T07:26:00.560Z,3.22
2023-01-02T07:31:05.664Z,4.65
2023-01-02T07:36:11.369Z,3.53
2023-01-02T07:41:21.370Z,3.30
2023-01-02T07:46:24.169Z,3.53
2023-01-02T07:51:27.652Z,3.42
2023-01-02T07:56:29.541Z,2.90
2023-01-02T08:01:31.316Z,2.70
2023-01-02T08:06:34.251Z,3.50
2023-01-02T08:11:36.153Z,3.50
2023-01-02T08:16:37.880Z,3.20
2023-01-02T08:21:39.629Z,3.05
2023-01-02T08:26:41.392Z,3.35
2023-01-02T08:31:44.055Z,2.65
2023-01-02T08:36:46.011Z,2.70
2023-01-02T08:41:47.846Z,2.80
2023-01-02T08:46:49.756Z,2.80
2023-01-02T08:51:51.489Z,2.43
2023-01-02T08:56:53.264Z,4.13
2023-01-02T09:01:55.112Z,2.58
2023-01-02T09:06:56.860Z,2.45
2023-01-02T09:11:59.191Z,2.65
2023-01-02T09:17:00.853Z,2.92
2023-01-02T09:22:02.807Z,2.67
2023-01-02T09:27:04.558Z,2.80
2023-01-02T09:32:06.245Z,2.78
2023-01-02T09:37:09.004Z,3.15
2023-01-02T09:42:17.055Z,3.15
2023-01-02T09:47:24.092Z,3.00
2023-01-02T09:52:45.096Z,3.05
2023-01-02T09:57:58.977Z,2.90
2023-01-02T10:03:21.162Z,3.27
2023-01-02T10:08:49.055Z,2.70
2023-01-02T10:14:20.662Z,1.80
2023-01-02T10:19:41.721Z,2.25
2023-01-02T10:24:59.037Z,1.77
2023-01-02T10:30:07.133Z,2.08
2023-01-02T10:35:08.778Z,1.90
2023-01-02T10:40:10.772Z,1.83
2023-01-02T10:45:16.128Z,1.60
2023-01-02T10:50:31.971Z,1.90
2023-01-02T10:55:42.452Z,2.13
2023-01-02T11:00:44.186Z,1.80
2023-01-02T11:05:51.737Z,2.35
2023-01-02T11:10:53.425Z,1.85
2023-01-02T11:16:03.108Z,1.80
2023-01-02T11:21:07.697Z,2.22
2023-01-02T11:26:20.325Z,1.83
2023-01-02T11:31:22.727Z,1.73
2023-01-02T11:36:24.577Z,1.70
2023-01-02T11:42:16.443Z,1.33
2023-01-02T11:47:20.159Z,1.70
2023-01-02T11:52:30.899Z,2.10
2023-01-02T11:57:51.367Z,1.80
2023-01-02T12:02:54.035Z,2.42
2023-01-02T12:08:04.838Z,2.50
2023-01-02T12:13:31.295Z,2.50
2023-01-02T12:18:47.824Z,2.88
2023-01-02T12:24:21.925Z,2.80
2023-01-02T12:29:54.797Z,3.23
2023-01-02T12:35:09.110Z,3.67
2023-01-02T12:40:23.967Z,4.65
2023-01-02T12:45:44.463Z,4.10
2023-01-02T12:51:09.654Z,3.83
2023-01-02T12:56:14.410Z,3.45
2023-01-02T13:01:25.670Z,1.98
2023-01-02T13:07:13.787Z,2.92
2023-01-02T13:12:21.890Z,2.75
2023-01-02T13:17:41.991Z,2.10
2023-01-02T13:23:01.132Z,2.20
2023-01-02T13:28:05.884Z,2.10
2023-01-02T13:33:40.959Z,2.90
2023-01-02T13:38:46.549Z,2.30
2023-01-02T13:44:01.273Z,2.38
2023-01-02T13:49:06.470Z,1.85
2023-01-02T13:54:18.120Z,2.10
2023-01-02T13:59:42.687Z,1.60
2023-01-02T14:04:48.204Z,4.25
2023-01-02T14:10:26.976Z,2.38
2023-01-02T14:15:30.189Z,2.38
2023-01-02T14:20:35.942Z,2.75
2023-01-02T14:25:49.746Z,4.38
2023-01-02T14:30:51.911Z,2.73
2023-01-02T14:35:58.439Z,3.08
2023-01-02T14:41:18.598Z,2.90
2023-01-02T14:46:24.423Z,2.92
2023-01-02T14:51:36.792Z,3.05
2023-01-02T14:56:41.332Z,2.70
2023-01-02T15:01:51.728Z,3.38
2023-01-02T15:07:27.453Z,3.00
2023-01-02T15:12:50.957Z,3.15
2023-01-02T15:17:55.505Z,3.25
2023-01-02T15:22:58.898Z,3.75
2023-01-02T15:28:00.870Z,4.63
2023-01-02T15:33:02.597Z,4.88
2023-01-02T15:38:05.280Z,5.38
2023-01-02T15:43:33.347Z,4.53
2023-01-02T15:48:37.264Z,9.23
2023-01-02T15:53:41.165Z,7.60
2023-01-02T15:58:50.328Z,7.05
2023-01-02T16:04:00.382Z,5.78
2023-01-02T16:09:08.432Z,6.80
2023-01-02T16:19:30.307Z,5.00
2023-01-02T16:24:34.491Z,3.65
2023-01-02T16:29:42.243Z,3.78
2023-01-02T16:34:44.718Z,3.10
2023-01-02T16:39:49.444Z,2.72
2023-01-02T16:44:55.621Z,2.53
2023-01-02T16:49:57.453Z,2.20
2023-01-02T16:54:59.221Z,2.58
2023-01-02T17:00:01.038Z,3.15
2023-01-02T17:05:28.673Z,3.20
2023-01-02T17:10:30.653Z,2.60
2023-01-02T17:15:32.382Z,3.30
2023-01-02T17:20:34.199Z,3.28
2023-01-02T17:25:37.727Z,15.73
2023-01-02T17:30:44.315Z,10.10
2023-01-02T17:35:47.403Z,5.22
2023-01-02T17:40:49.222Z,5.30
2023-01-02T17:45:50.991Z,4.10
2023-01-02T17:50:53.696Z,4.15
2023-01-02T17:56:20.501Z,4.25
2023-01-02T18:01:20.432Z,4.18
2023-01-02T18:06:22.200Z,3.53
2023-01-02T18:11:24.419Z,4.78
2023-01-02T18:16:33.269Z,3.20
2023-01-02T18:21:35.270Z,4.22
2023-01-02T18:26:37.115Z,3.55
2023-01-02T18:31:42.021Z,3.63
2023-01-02T18:36:43.689Z,3.53
2023-01-02T18:41:45.522Z,5.32
2023-01-02T18:47:03.093Z,5.30
2023-01-02T18:52:26.117Z,5.30
2023-01-02T18:57:34.472Z,3.78
2023-01-02T19:02:46.535Z,20.90
2023-01-02T19:07:48.327Z,9.50
2023-01-02T19:13:08.112Z,9.82
2023-01-02T19:18:19.715Z,6.32
2023-01-02T19:23:29.697Z,7.22
2023-01-02T19:28:31.549Z,7.95
2023-01-02T19:33:42.051Z,9.18
2023-01-02T19:38:46.277Z,8.63
2023-01-02T19:43:47.908Z,9.25
2023-01-02T19:48:49.521Z,8.35
2023-01-02T19:53:51.191Z,8.75
2023-01-02T19:58:52.878Z,9.73
2023-01-02T20:03:54.469Z,9.70
2023-01-02T20:08:56.148Z,8.13
2023-01-02T20:13:57.810Z,7.80
2023-01-02T20:18:59.455Z,7.35
2023-01-02T20:24:01.342Z,7.15
2023-01-02T20:29:04.150Z,8.48
2023-01-02T20:34:05.995Z,7.75
2023-01-02T20:39:08.779Z,7.10
2023-01-02T20:44:13.130Z,5.97
2023-01-02T20:54:16.463Z,6.55
2023-01-02T20:59:19.069Z,6.30
2023-01-02T21:04:27.788Z,7.45
2023-01-02T21:09:30.923Z,8.43
2023-01-02T21:14:37.618Z,7.75
2023-01-02T21:19:39.676Z,7.03
2023-01-02T21:24:41.356Z,8.40
2023-01-02T21:29:45.434Z,7.25
2023-01-02T21:34:47.131Z,6.78
2023-01-02T21:39:49.874Z,6.68
2023-01-02T21:44:51.853Z,7.03
2023-01-02T21:49:53.571Z,7.32
2023-01-02T21:54:55.367Z,7.38
2023-01-02T21:59:57.302Z,7.32
2023-01-02T22:04:59.076Z,7.00
2023-01-02T22:10:00.751Z,6.95
2023-01-02T22:15:07.260Z,6.57
2023-01-02T22:20:09.653Z,6.40
2023-01-02T22:25:11.586Z,6.55
2023-01-02T22:30:26.174Z,6.60
2023-01-02T22:35:32.895Z,5.50
2023-01-02T22:40:34.607Z,5.35
2023-01-02T22:45:43.686Z,5.45
2023-01-02T22:50:46.686Z,5.28
2023-01-02T22:55:48.779Z,5.22
2023-01-02T23:01:02.162Z,4.82
2023-01-02T23:06:03.856Z,5.32
2023-01-02T23:11:07.151Z,5.57
2023-01-02T23:16:27.744Z,5.50
2023-01-02T23:21:34.595Z,6.47
2023-01-02T23:26:40.705Z,5.95
2023-01-02T23:31:44.308Z,5.57
2023-01-02T23:36:46.613Z,3.80
2023-01-02T23:41:49.636Z,3.72
2023-01-02T23:46:51.510Z,3.75
2023-01-02T23:51:53.750Z,3.35
2023-01-02T23:56:55.376Z,3.53
